Terminal Aerodrome Forecast
Issued by NWS

Home | Current Version | Previous Version | Text Only | Print | Product List | Glossary On
Versions: 1 2 3 4 5 6 7 8 9 10 11 12 13 14 15 16 17 18 19 20 21 22
000
FTUS43 KGRB 311128
TAFCWA
TAF
KCWA 311128Z 3112/0112 35005KT P6SM SCT150
      TEMPO 3112/3113 3SM BR
     FM311500 34007G14KT P6SM FEW040 SCT060
     FM010400 02005KT P6SM FEW020 BKN050=

USA.gov is the U.S. government's official web portal to all federal, state and local government web resources and services.